createdAt,value
2023-05-13T03:59:20.278Z,20.56
2023-05-13T04:00:20.440Z,20.56
2023-05-13T04:01:20.197Z,20.60
2023-05-13T04:02:20.208Z,20.56
2023-05-13T04:03:20.218Z,20.58
2023-05-13T04:04:20.196Z,20.61
2023-05-13T04:05:20.205Z,20.63
2023-05-13T04:06:20.155Z,20.68
2023-05-13T04:07:20.161Z,20.71
2023-05-13T04:08:20.161Z,20.75
2023-05-13T04:09:20.150Z,20.75
2023-05-13T04:10:20.368Z,20.66
2023-05-13T04:11:20.152Z,20.68
2023-05-13T04:12:20.119Z,20.76
2023-05-13T04:13:20.122Z,20.78
2023-05-13T04:14:20.113Z,20.81
2023-05-13T04:15:20.133Z,20.85
2023-05-13T04:16:20.155Z,20.79
2023-05-13T04:17:20.148Z,20.83
2023-05-13T04:18:20.091Z,20.82
2023-05-13T04:19:20.118Z,20.91
2023-05-13T04:20:20.324Z,20.96
2023-05-13T04:21:20.105Z,20.91
2023-05-13T04:23:20.076Z,20.96
2023-05-13T04:24:20.074Z,20.98
2023-05-13T04:25:20.075Z,20.98
2023-05-13T04:26:20.083Z,20.94
2023-05-13T04:27:20.086Z,20.88
2023-05-13T04:28:20.056Z,21.01
2023-05-13T04:29:20.063Z,21.01
2023-05-13T04:30:20.266Z,21.06
2023-05-13T04:31:20.103Z,21.03
2023-05-13T04:32:20.048Z,21.03
2023-05-13T04:33:20.052Z,21.08
2023-05-13T04:34:20.047Z,21.03
2023-05-13T04:35:20.078Z,21.16
2023-05-13T04:36:20.039Z,21.04
2023-05-13T04:37:20.020Z,21.12
2023-05-13T04:38:20.027Z,21.13
2023-05-13T04:39:20.016Z,21.13
2023-05-13T04:40:20.191Z,21.22
2023-05-13T04:41:20.007Z,21.22
2023-05-13T04:42:20.027Z,21.27
2023-05-13T04:43:20.013Z,21.19
2023-05-13T04:44:20.002Z,21.22
2023-05-13T04:45:20.004Z,21.28
2023-05-13T04:46:20.031Z,21.19
2023-05-13T04:47:20.071Z,21.25
2023-05-13T04:48:20.014Z,21.23
2023-05-13T04:49:19.989Z,21.28
2023-05-13T04:50:20.110Z,21.33
2023-05-13T04:51:19.971Z,21.31
2023-05-13T04:52:19.970Z,21.34
2023-05-13T04:53:19.980Z,21.37
2023-05-13T04:54:19.956Z,21.34
2023-05-13T04:55:19.969Z,21.38
2023-05-13T04:56:19.945Z,21.37
2023-05-13T04:57:19.954Z,21.40
2023-05-13T04:58:19.976Z,21.41
2023-05-13T04:59:19.958Z,21.51
2023-05-13T05:00:20.082Z,21.45
2023-05-13T05:01:19.987Z,21.45
2023-05-13T05:02:19.925Z,21.52
2023-05-13T05:03:19.952Z,21.64
2023-05-13T05:04:19.987Z,21.56
2023-05-13T05:05:19.953Z,21.56
2023-05-13T05:06:19.930Z,21.62
2023-05-13T05:07:19.914Z,21.59
2023-05-13T05:08:19.929Z,21.62
2023-05-13T05:09:19.919Z,21.66
2023-05-13T05:10:20.251Z,21.67
2023-05-13T05:11:19.915Z,21.71
2023-05-13T05:12:19.904Z,21.73
2023-05-13T05:13:19.913Z,21.70
2023-05-13T05:14:19.897Z,21.78
2023-05-13T05:15:19.885Z,21.78
2023-05-13T05:16:19.909Z,21.78
2023-05-13T05:17:19.966Z,21.76
2023-05-13T05:18:19.929Z,21.78
2023-05-13T05:19:19.999Z,21.83
2023-05-13T05:20:20.117Z,21.78
2023-05-13T05:21:19.876Z,21.82
2023-05-13T05:22:19.861Z,21.83
2023-05-13T05:23:19.873Z,21.85
2023-05-13T05:24:19.864Z,21.92
2023-05-13T05:25:19.891Z,21.86
2023-05-13T05:26:19.865Z,21.90
2023-05-13T05:27:19.859Z,21.86
2023-05-13T05:28:19.873Z,21.89
2023-05-13T05:29:19.856Z,21.93
2023-05-13T05:30:20.107Z,21.89
2023-05-13T05:31:19.925Z,21.97
2023-05-13T05:32:19.879Z,21.97
2023-05-13T05:33:19.842Z,22.02
2023-05-13T05:34:19.831Z,22.00
2023-05-13T05:35:19.851Z,22.04
2023-05-13T05:36:20.551Z,22.08
2023-05-13T05:37:19.843Z,22.04
2023-05-13T05:38:19.843Z,22.09
2023-05-13T05:39:19.816Z,22.12
2023-05-13T05:40:19.950Z,22.15
2023-05-13T05:41:19.821Z,22.15
2023-05-13T05:42:19.818Z,22.15
2023-05-13T05:43:19.826Z,22.12
2023-05-13T05:44:19.808Z,22.27
2023-05-13T05:45:19.803Z,22.26
2023-05-13T05:46:19.885Z,22.27
2023-05-13T05:47:19.802Z,22.34
2023-05-13T05:48:19.787Z,22.38
2023-05-13T05:49:19.782Z,22.34
2023-05-13T05:50:20.030Z,22.46
2023-05-13T05:51:19.856Z,22.48
2023-05-13T05:52:19.779Z,22.54
2023-05-13T05:53:19.788Z,22.46
2023-05-13T05:54:19.769Z,22.59
2023-05-13T05:55:19.778Z,22.66
2023-05-13T05:56:19.826Z,22.59
2023-05-13T05:57:19.758Z,22.64
2023-05-13T05:58:19.761Z,22.71
2023-05-13T05:59:19.756Z,22.71
2023-05-13T06:00:19.971Z,22.75
2023-05-13T06:01:19.765Z,22.82
2023-05-13T06:02:19.799Z,22.84
2023-05-13T06:03:19.858Z,22.84
2023-05-13T06:04:19.776Z,22.86
2023-05-13T06:05:19.745Z,22.91
2023-05-13T06:06:19.771Z,22.91
2023-05-13T06:07:19.782Z,23.01
2023-05-13T06:08:19.727Z,22.99
2023-05-13T06:09:19.729Z,23.03
2023-05-13T06:10:19.935Z,23.07
2023-05-13T06:11:19.758Z,23.04
2023-05-13T06:12:19.732Z,23.10
2023-05-13T06:13:19.723Z,23.18
2023-05-13T06:14:19.720Z,23.22
2023-05-13T06:15:19.732Z,23.25
2023-05-13T06:16:19.749Z,23.32
2023-05-13T06:17:19.710Z,23.19
2023-05-13T06:18:19.735Z,23.29
2023-05-13T06:19:19.706Z,23.28
2023-05-13T06:20:20.020Z,23.44
2023-05-13T06:21:19.701Z,23.34
2023-05-13T06:22:19.710Z,23.40
2023-05-13T06:23:19.734Z,23.45
2023-05-13T06:24:19.700Z,23.48
2023-05-13T06:25:19.739Z,23.52
2023-05-13T06:26:19.713Z,23.57
2023-05-13T06:27:19.694Z,23.57
2023-05-13T06:28:19.709Z,23.59
2023-05-13T06:29:19.712Z,23.72
2023-05-13T06:30:20.065Z,23.66
2023-05-13T06:31:19.728Z,23.67
2023-05-13T06:32:19.689Z,23.79
2023-05-13T06:33:19.758Z,23.82
2023-05-13T06:34:19.691Z,23.84
2023-05-13T06:35:19.719Z,23.79
2023-05-13T06:36:19.690Z,23.93
2023-05-13T06:37:19.672Z,23.92
2023-05-13T06:38:19.680Z,23.93
2023-05-13T06:39:19.786Z,23.90
2023-05-13T06:40:19.990Z,23.97
2023-05-13T06:41:19.681Z,24.03
2023-05-13T06:42:19.666Z,24.08
2023-05-13T06:43:19.696Z,24.14
2023-05-13T06:44:19.667Z,24.17
2023-05-13T06:45:19.663Z,24.22
2023-05-13T06:46:19.725Z,24.19
2023-05-13T06:47:21.795Z,24.19
2023-05-13T06:48:19.658Z,24.26
2023-05-13T06:49:19.716Z,24.21
2023-05-13T06:50:19.779Z,24.24
2023-05-13T06:51:19.657Z,24.29
2023-05-13T06:52:19.680Z,24.33
2023-05-13T06:53:19.665Z,24.44
2023-05-13T06:54:19.666Z,24.46
2023-05-13T06:55:19.726Z,24.44
2023-05-13T06:56:19.654Z,24.51
2023-05-13T06:57:20.763Z,24.52
2023-05-13T06:58:19.667Z,24.49
2023-05-13T06:59:19.650Z,24.46
2023-05-13T07:00:19.764Z,24.52
2023-05-13T07:01:19.723Z,24.66
2023-05-13T07:02:19.658Z,24.64
2023-05-13T07:03:19.663Z,24.59
2023-05-13T07:04:19.772Z,24.71
2023-05-13T07:05:19.666Z,24.75
2023-05-13T07:06:19.648Z,24.67
2023-05-13T07:07:19.653Z,24.80
2023-05-13T07:08:19.632Z,24.80
2023-05-13T07:09:19.635Z,24.80
2023-05-13T07:10:19.757Z,24.82
2023-05-13T07:11:19.680Z,24.87
2023-05-13T07:12:19.633Z,24.86
2023-05-13T07:13:19.647Z,24.93
2023-05-13T07:14:19.642Z,24.94
2023-05-13T07:15:19.785Z,25.02
2023-05-13T07:16:19.629Z,24.97
2023-05-13T07:17:19.656Z,25.04
2023-05-13T07:18:19.654Z,25.01
2023-05-13T07:19:19.787Z,25.04
2023-05-13T07:20:20.087Z,25.05
2023-05-13T07:21:19.637Z,25.01
2023-05-13T07:22:19.617Z,25.14
2023-05-13T07:23:19.618Z,25.15
2023-05-13T07:24:19.622Z,25.14
2023-05-13T07:25:19.640Z,25.17
2023-05-13T07:26:19.650Z,25.26
2023-05-13T07:27:19.637Z,25.24
2023-05-13T07:28:19.624Z,25.33
2023-05-13T07:29:19.630Z,25.33
2023-05-13T07:30:19.709Z,25.34
2023-05-13T07:31:19.703Z,25.33
2023-05-13T07:32:19.658Z,25.37
2023-05-13T07:33:19.621Z,25.34
2023-05-13T07:34:19.619Z,25.30
2023-05-13T07:35:19.757Z,25.34
2023-05-13T07:36:19.643Z,25.34
2023-05-13T07:37:19.612Z,25.41
2023-05-13T07:38:19.615Z,25.41
2023-05-13T07:39:19.633Z,25.48
2023-05-13T07:40:19.672Z,25.56
2023-05-13T07:41:19.624Z,25.54
2023-05-13T07:42:19.612Z,25.57
2023-05-13T07:43:19.653Z,25.66
2023-05-13T07:44:19.630Z,25.52
2023-05-13T07:45:19.717Z,25.54
2023-05-13T07:46:19.647Z,25.62
2023-05-13T07:47:19.781Z,25.63
2023-05-13T07:48:19.612Z,25.63
2023-05-13T07:49:19.620Z,25.75
2023-05-13T07:50:19.628Z,25.79
2023-05-13T07:51:19.608Z,25.79
2023-05-13T07:52:19.638Z,25.76
2023-05-13T07:53:20.018Z,25.76
2023-05-13T07:54:19.624Z,25.85
2023-05-13T07:55:19.785Z,25.84
2023-05-13T07:56:19.618Z,25.86
2023-05-13T07:57:19.632Z,25.85
2023-05-13T07:58:19.646Z,25.89
2023-05-13T07:59:19.646Z,25.86
2023-05-13T08:00:19.635Z,25.89
2023-05-13T08:01:19.609Z,25.99
2023-05-13T08:02:19.628Z,25.97
2023-05-13T08:03:19.697Z,25.96
2023-05-13T08:04:19.780Z,26.03
2023-05-13T08:05:19.760Z,26.01
2023-05-13T08:06:19.632Z,26.01
2023-05-13T08:07:19.610Z,25.97
2023-05-13T08:08:19.616Z,26.06
2023-05-13T08:09:19.624Z,26.03
2023-05-13T08:10:19.614Z,26.15
2023-05-13T08:11:19.615Z,26.09
2023-05-13T08:12:19.611Z,26.15
2023-05-13T08:13:19.623Z,26.11
2023-05-13T08:14:19.634Z,26.11
2023-05-13T08:15:19.787Z,26.23
2023-05-13T08:16:19.625Z,26.19
2023-05-13T08:17:19.626Z,26.27
2023-05-13T08:18:19.641Z,26.32
2023-05-13T08:19:19.783Z,26.23
2023-05-13T08:20:19.620Z,26.26
2023-05-13T08:21:19.622Z,26.30
2023-05-13T08:22:19.616Z,26.38
2023-05-13T08:23:19.624Z,26.35
2023-05-13T08:24:19.646Z,26.38
2023-05-13T08:25:19.870Z,26.32
2023-05-13T08:26:19.622Z,26.41
2023-05-13T08:27:19.616Z,26.27
2023-05-13T08:28:19.612Z,26.35
2023-05-13T08:29:19.658Z,26.45
2023-05-13T08:30:19.640Z,26.37
2023-05-13T08:31:19.701Z,26.45
2023-05-13T08:32:19.859Z,26.42
2023-05-13T08:33:19.625Z,26.50
2023-05-13T08:34:19.618Z,26.53
2023-05-13T08:35:19.781Z,26.50
2023-05-13T08:36:19.631Z,26.52
2023-05-13T08:37:19.634Z,26.53
2023-05-13T08:38:19.660Z,26.53
2023-05-13T08:39:19.616Z,26.60
2023-05-13T08:40:19.635Z,26.54
2023-05-13T08:41:21.850Z,26.57
2023-05-13T08:42:19.631Z,26.57
2023-05-13T08:43:19.616Z,26.60
2023-05-13T08:44:19.624Z,26.57
2023-05-13T08:45:19.757Z,26.60
2023-05-13T08:46:19.674Z,26.60
2023-05-13T08:47:19.682Z,26.71
2023-05-13T08:48:19.628Z,26.74
2023-05-13T08:49:19.644Z,26.68
2023-05-13T08:50:19.632Z,26.72
2023-05-13T08:51:19.621Z,26.76
2023-05-13T08:52:19.625Z,26.78
2023-05-13T08:53:19.633Z,26.81
2023-05-13T08:54:21.092Z,26.86
2023-05-13T08:55:19.822Z,26.93
2023-05-13T08:56:19.652Z,26.90
2023-05-13T08:57:19.624Z,26.81
2023-05-13T08:58:19.635Z,26.93
2023-05-13T08:59:19.629Z,26.86
2023-05-13T09:00:21.566Z,26.99
2023-05-13T09:01:19.667Z,26.89
2023-05-13T09:02:19.631Z,26.94
2023-05-13T09:03:19.675Z,26.97
2023-05-13T09:04:19.649Z,27.01
2023-05-13T09:05:19.824Z,27.04
2023-05-13T09:06:19.633Z,27.06
2023-05-13T09:07:19.637Z,26.99
2023-05-13T09:08:19.667Z,27.05
2023-05-13T09:09:19.638Z,27.12
2023-05-13T09:10:19.640Z,27.09
2023-05-13T09:11:19.652Z,27.12
2023-05-13T09:12:19.654Z,27.23
2023-05-13T09:13:19.665Z,27.16
2023-05-13T09:14:19.643Z,27.16
2023-05-13T09:15:19.829Z,27.26
2023-05-13T09:16:19.662Z,27.21
2023-05-13T09:17:19.649Z,27.31
2023-05-13T09:18:19.774Z,27.23
2023-05-13T09:19:19.853Z,27.26
2023-05-13T09:20:19.668Z,27.30
2023-05-13T09:21:19.664Z,27.28
2023-05-13T09:22:19.681Z,27.36
2023-05-13T09:23:19.671Z,27.33
2023-05-13T09:24:19.678Z,27.30
2023-05-13T09:25:20.025Z,27.42
2023-05-13T09:26:19.653Z,27.28
2023-05-13T09:27:19.655Z,27.46
2023-05-13T09:28:19.653Z,27.38
2023-05-13T09:29:19.662Z,27.48
2023-05-13T09:30:19.751Z,27.42
2023-05-13T09:31:19.733Z,27.45
2023-05-13T09:32:19.665Z,27.51
2023-05-13T09:33:19.664Z,27.48
2023-05-13T09:34:19.657Z,27.45
2023-05-13T09:35:19.858Z,27.45
2023-05-13T09:36:19.668Z,27.53
2023-05-13T09:37:19.659Z,27.51
2023-05-13T09:38:19.656Z,27.49
2023-05-13T09:39:19.666Z,27.51
2023-05-13T09:40:19.805Z,27.48
2023-05-13T09:41:19.718Z,27.48
2023-05-13T09:42:19.740Z,27.53
2023-05-13T09:43:19.669Z,27.55
2023-05-13T09:44:19.667Z,27.61
2023-05-13T09:45:19.923Z,27.61
2023-05-13T09:46:19.692Z,27.59
2023-05-13T09:47:19.679Z,27.57
2023-05-13T09:48:19.697Z,27.62
2023-05-13T09:49:19.700Z,27.64
2023-05-13T09:50:19.900Z,27.69
2023-05-13T09:51:19.731Z,27.55
2023-05-13T09:52:19.678Z,27.59
2023-05-13T09:53:19.680Z,27.62
2023-05-13T09:54:19.693Z,27.69
2023-05-13T09:55:19.741Z,27.74
2023-05-13T09:56:19.694Z,27.72
2023-05-13T09:57:19.681Z,27.75
2023-05-13T09:58:19.727Z,27.71
2023-05-13T09:59:19.769Z,27.80
2023-05-13T10:00:31.802Z,27.81
2023-05-13T10:01:19.727Z,27.79
2023-05-13T10:02:19.713Z,27.91
2023-05-13T10:13:49.945Z,28.06
2023-05-13T10:14:49.900Z,27.99
2023-05-13T10:15:49.911Z,28.05
2023-05-13T10:16:49.946Z,28.05
2023-05-13T10:17:49.987Z,28.08
2023-05-13T10:18:49.964Z,28.11
2023-05-13T10:19:49.964Z,28.20
2023-05-13T10:20:49.918Z,28.11
2023-05-13T10:21:49.905Z,28.26
2023-05-13T10:22:49.912Z,28.17
2023-05-13T10:23:49.919Z,28.28
2023-05-13T10:24:49.903Z,28.24
2023-05-13T10:25:49.938Z,28.28
2023-05-13T10:26:49.920Z,28.38
2023-05-13T10:27:49.942Z,28.38
2023-05-13T10:28:49.911Z,28.33
2023-05-13T10:29:49.924Z,28.43
2023-05-13T10:30:49.917Z,28.53
2023-05-13T10:31:49.949Z,28.45
2023-05-13T10:32:49.998Z,28.54
2023-05-13T10:33:49.950Z,28.65
2023-05-13T10:34:49.938Z,28.65
2023-05-13T10:35:49.933Z,28.67
2023-05-13T10:36:49.951Z,28.67
2023-05-13T10:37:49.921Z,28.70
2023-05-13T10:38:49.970Z,28.86
2023-05-13T10:39:49.966Z,28.79
2023-05-13T10:40:49.940Z,28.82
2023-05-13T10:41:50.005Z,28.83
2023-05-13T10:42:49.982Z,28.90
2023-05-13T10:43:49.937Z,28.92
2023-05-13T10:44:49.950Z,28.98
2023-05-13T10:45:50.023Z,29.10
2023-05-13T10:46:50.075Z,29.11
2023-05-13T10:47:50.204Z,29.06
2023-05-13T10:48:50.055Z,29.14
2023-05-13T10:49:49.986Z,29.21
2023-05-13T10:50:49.959Z,29.18
2023-05-13T10:51:49.960Z,29.30
2023-05-13T10:52:49.991Z,29.29
2023-05-13T10:53:49.990Z,29.36
2023-05-13T10:54:49.964Z,29.43
2023-05-13T10:55:49.982Z,29.47
2023-05-13T10:56:49.971Z,29.51
2023-05-13T10:57:49.973Z,29.45
2023-05-13T10:58:49.999Z,29.55
2023-05-13T10:59:49.989Z,29.60
2023-05-13T11:00:50.026Z,29.69
2023-05-13T11:01:50.075Z,29.70
2023-05-13T11:02:50.085Z,29.82
2023-05-13T11:03:50.060Z,29.77
2023-05-13T11:04:50.026Z,29.79
2023-05-13T11:05:50.015Z,29.85
2023-05-13T11:06:50.070Z,29.97
2023-05-13T11:07:50.012Z,29.98
2023-05-13T11:08:50.009Z,30.02
2023-05-13T11:09:50.027Z,30.06
2023-05-13T11:10:50.173Z,30.10
2023-05-13T11:11:50.028Z,30.10
2023-05-13T11:12:50.035Z,30.19
2023-05-13T11:13:50.045Z,30.21
2023-05-13T11:14:50.086Z,30.32
2023-05-13T11:15:50.089Z,30.31
2023-05-13T11:16:50.050Z,30.44
2023-05-13T11:17:50.095Z,30.39
2023-05-13T11:18:50.083Z,30.56
2023-05-13T11:19:50.089Z,30.57
2023-05-13T11:20:52.877Z,30.60
2023-05-13T11:21:50.063Z,30.70
2023-05-13T11:22:50.074Z,30.69
2023-05-13T11:23:50.070Z,30.75
2023-05-13T11:24:50.081Z,30.91
2023-05-13T11:25:50.082Z,30.86
2023-05-13T11:26:50.091Z,30.91
2023-05-13T11:27:50.100Z,30.91
2023-05-13T11:28:50.095Z,31.03
2023-05-13T11:29:50.101Z,31.04
2023-05-13T11:30:50.103Z,31.19
2023-05-13T11:31:50.276Z,31.28
2023-05-13T11:32:50.143Z,31.23
2023-05-13T11:33:50.128Z,31.26
2023-05-13T11:34:50.126Z,31.25
2023-05-13T11:35:50.126Z,31.23
2023-05-13T11:36:50.187Z,31.19
2023-05-13T11:37:50.154Z,31.25
2023-05-13T11:38:50.141Z,31.23
2023-05-13T11:39:50.144Z,31.30
2023-05-13T11:40:50.159Z,31.30
2023-05-13T11:41:50.194Z,31.43
2023-05-13T11:42:50.178Z,31.44
2023-05-13T11:43:50.172Z,31.53
2023-05-13T11:44:50.199Z,31.41
2023-05-13T11:45:50.246Z,31.43
2023-05-13T11:46:50.179Z,31.53
2023-05-13T11:47:50.244Z,31.50
2023-05-13T11:48:50.227Z,31.55
2023-05-13T11:49:50.229Z,31.70
2023-05-13T11:50:50.205Z,31.75
2023-05-13T11:51:50.202Z,31.86
2023-05-13T11:52:50.204Z,31.94
2023-05-13T11:53:50.212Z,32.00
2023-05-13T11:54:50.206Z,32.08
2023-05-13T11:55:50.216Z,32.19
2023-05-13T11:56:50.232Z,32.19
2023-05-13T11:57:50.233Z,32.27
2023-05-13T11:58:50.235Z,32.24
2023-05-13T11:59:50.230Z,32.24
2023-05-13T12:00:50.229Z,32.28
2023-05-13T12:01:50.275Z,32.30
2023-05-13T12:02:50.410Z,32.42
2023-05-13T12:03:50.267Z,32.59
2023-05-13T12:04:50.359Z,32.57
2023-05-13T12:05:50.271Z,32.72
2023-05-13T12:06:50.259Z,32.80
2023-05-13T12:07:50.284Z,32.89
2023-05-13T12:08:50.279Z,33.02
2023-05-13T12:09:50.292Z,33.05
2023-05-13T12:10:50.296Z,33.08
2023-05-13T12:11:50.296Z,33.12
2023-05-13T12:12:50.332Z,32.93
2023-05-13T12:13:50.296Z,32.79
2023-05-13T12:14:50.354Z,32.74
2023-05-13T12:15:50.380Z,32.69
2023-05-13T12:16:50.315Z,32.75
2023-05-13T12:17:50.428Z,32.89
2023-05-13T12:18:50.376Z,32.96
2023-05-13T12:19:50.350Z,33.05
2023-05-13T12:20:50.357Z,33.29
2023-05-13T12:21:50.354Z,33.29
2023-05-13T12:22:50.365Z,33.44
2023-05-13T12:23:50.348Z,33.46
2023-05-13T12:24:50.353Z,33.63
2023-05-13T12:25:50.359Z,33.66
2023-05-13T12:26:50.361Z,33.80
2023-05-13T12:27:50.400Z,33.85
2023-05-13T12:28:50.385Z,33.99
2023-05-13T12:29:50.403Z,33.84
2023-05-13T12:30:50.438Z,33.71
2023-05-13T12:31:50.518Z,33.59
2023-05-13T12:32:50.425Z,33.53
2023-05-13T12:33:50.412Z,33.46
2023-05-13T12:34:50.407Z,33.34
2023-05-13T12:35:50.450Z,33.32
2023-05-13T12:36:50.439Z,33.50
2023-05-13T12:37:50.445Z,33.58
2023-05-13T12:38:50.435Z,33.71
2023-05-13T12:39:50.461Z,33.84
2023-05-13T12:40:50.488Z,33.96
2023-05-13T12:41:50.471Z,34.14
2023-05-13T12:42:50.459Z,34.14
2023-05-13T12:43:50.493Z,33.96
2023-05-13T12:44:50.483Z,33.80
2023-05-13T12:45:50.485Z,33.66
2023-05-13T12:46:50.503Z,33.53
2023-05-13T12:47:50.549Z,33.40
2023-05-13T12:48:50.499Z,33.29
2023-05-13T12:49:50.510Z,33.48
2023-05-13T12:50:50.529Z,33.89
2023-05-13T12:51:50.556Z,34.12
2023-05-13T12:52:50.536Z,34.33
2023-05-13T12:53:50.562Z,34.36
2023-05-13T12:54:50.510Z,34.46
2023-05-13T12:55:50.508Z,34.08
2023-05-13T12:56:50.519Z,33.84
2023-05-13T12:57:50.538Z,33.74
2023-05-13T12:58:50.568Z,33.53
2023-05-13T12:59:50.533Z,33.68
2023-05-13T13:00:50.591Z,33.80
2023-05-13T13:01:50.577Z,33.69
2023-05-13T13:02:50.671Z,33.55
2023-05-13T13:03:50.706Z,33.47
2023-05-13T13:04:50.588Z,33.32
2023-05-13T13:05:50.584Z,33.09
2023-05-13T13:06:50.586Z,33.09
2023-05-13T13:07:50.588Z,32.89
2023-05-13T13:08:50.597Z,32.79
2023-05-13T13:09:50.610Z,32.75
2023-05-13T13:10:50.613Z,32.76
2023-05-13T13:11:50.605Z,33.16
2023-05-13T13:12:50.596Z,33.40
2023-05-13T13:13:50.614Z,33.46
2023-05-13T13:14:50.599Z,33.36
2023-05-13T13:15:50.643Z,33.55
2023-05-13T13:16:50.697Z,33.84
2023-05-13T13:17:50.684Z,34.11
2023-05-13T13:18:52.386Z,34.32
2023-05-13T13:19:50.661Z,34.22
2023-05-13T13:20:50.638Z,33.97
2023-05-13T13:21:50.628Z,33.73
2023-05-13T13:22:50.646Z,33.62
2023-05-13T13:23:50.645Z,33.46
2023-05-13T13:24:50.663Z,33.29
2023-05-13T13:25:50.688Z,33.08
2023-05-13T13:26:50.688Z,32.98
2023-05-13T13:27:50.662Z,32.94
2023-05-13T13:28:50.696Z,32.72
2023-05-13T13:29:50.673Z,32.69
2023-05-13T13:30:50.685Z,32.50
2023-05-13T13:31:50.755Z,32.31
2023-05-13T13:32:50.787Z,32.27
2023-05-13T13:33:50.706Z,32.10
2023-05-13T13:34:50.703Z,32.03
2023-05-13T13:35:50.733Z,31.94
2023-05-13T13:36:50.726Z,31.86
2023-05-13T13:37:50.732Z,31.72
2023-05-13T13:38:50.727Z,31.67
2023-05-13T13:39:50.735Z,31.58
2023-05-13T13:40:50.715Z,31.59
2023-05-13T13:41:50.732Z,31.82
2023-05-13T13:42:50.719Z,31.98
2023-05-13T13:43:50.773Z,31.95
2023-05-13T13:44:50.790Z,32.19
2023-05-13T13:45:50.760Z,32.52
2023-05-13T13:46:50.845Z,32.80
2023-05-13T13:49:24.144Z,33.29
2023-05-13T13:50:23.396Z,33.44
2023-05-13T13:51:23.280Z,33.66
2023-05-13T13:52:23.287Z,33.89
2023-05-13T13:53:23.295Z,34.00
2023-05-13T13:54:23.321Z,34.26
2023-05-13T13:55:23.297Z,34.40
2023-05-13T13:56:23.299Z,34.49
2023-05-13T13:57:23.339Z,34.61
2023-05-13T13:58:23.317Z,34.78
2023-05-13T13:59:23.324Z,34.79
2023-05-13T14:00:23.552Z,34.90
2023-05-13T14:01:23.374Z,35.06
2023-05-13T14:02:23.517Z,35.02
2023-05-13T14:03:23.534Z,34.72
2023-05-13T14:04:23.390Z,34.61
2023-05-13T14:05:23.378Z,34.36
2023-05-13T14:06:23.357Z,34.15
2023-05-13T14:07:23.368Z,33.97
2023-05-13T14:08:23.424Z,33.90
2023-05-13T14:09:23.392Z,33.61
2023-05-13T14:10:23.538Z,33.55
2023-05-13T14:11:23.394Z,33.43
2023-05-13T14:12:23.398Z,33.24
2023-05-13T14:13:23.438Z,33.05
2023-05-13T14:14:23.411Z,32.89
2023-05-13T14:15:23.416Z,32.76
2023-05-13T14:16:23.515Z,32.59
2023-05-13T14:17:23.495Z,32.50
2023-05-13T14:18:23.511Z,32.34
2023-05-13T14:19:23.459Z,32.30
2023-05-13T14:20:23.653Z,32.16
2023-05-13T14:21:23.416Z,32.30
2023-05-13T14:22:23.458Z,32.72
2023-05-13T14:23:23.432Z,32.84
2023-05-13T14:24:23.438Z,33.06
2023-05-13T14:25:23.459Z,33.16
2023-05-13T14:26:23.450Z,33.36
2023-05-13T14:27:23.474Z,33.47
2023-05-13T14:28:25.151Z,33.63
2023-05-13T14:29:23.475Z,33.78
2023-05-13T14:30:23.757Z,33.95
2023-05-13T14:31:23.486Z,34.10
2023-05-13T14:32:23.509Z,34.24
2023-05-13T14:33:23.470Z,34.33
2023-05-13T14:34:23.510Z,34.54
2023-05-13T14:35:23.486Z,34.66
2023-05-13T14:36:23.492Z,34.74
2023-05-13T14:37:23.502Z,34.74
2023-05-13T14:38:23.504Z,34.90
2023-05-13T14:39:23.508Z,34.83
2023-05-13T14:40:23.706Z,34.79
2023-05-13T14:41:23.520Z,34.61
2023-05-13T14:42:23.568Z,34.30
2023-05-13T14:43:23.528Z,34.12
2023-05-13T14:44:23.531Z,33.97
2023-05-13T14:45:23.553Z,33.83
2023-05-13T14:46:23.598Z,33.59
2023-05-13T14:47:23.558Z,33.44
2023-05-13T14:48:23.558Z,33.39
2023-05-13T14:49:23.565Z,33.20
2023-05-13T14:50:23.759Z,33.03
2023-05-13T14:51:23.576Z,32.94
2023-05-13T14:52:23.575Z,32.87
2023-05-13T14:53:23.579Z,32.79
2023-05-13T14:54:23.585Z,32.89
2023-05-13T14:55:23.579Z,32.86
2023-05-13T14:56:23.607Z,32.84
2023-05-13T14:57:23.611Z,32.99
2023-05-13T14:58:23.606Z,33.11
2023-05-13T14:59:23.614Z,33.18
2023-05-13T15:00:23.758Z,33.29
2023-05-13T15:01:23.670Z,33.32
2023-05-13T15:02:23.677Z,33.50
2023-05-13T15:03:23.642Z,33.52
2023-05-13T15:04:23.633Z,33.50
2023-05-13T15:05:23.643Z,33.55
2023-05-13T15:06:23.634Z,33.56
2023-05-13T15:07:23.632Z,33.61
2023-05-13T15:08:23.633Z,33.69
2023-05-13T15:09:23.657Z,33.77
2023-05-13T15:10:23.944Z,33.83
2023-05-13T15:11:23.645Z,33.75
2023-05-13T15:12:23.683Z,33.85
2023-05-13T15:13:23.668Z,33.84
2023-05-13T15:14:23.658Z,33.85
2023-05-13T15:15:23.664Z,33.92
2023-05-13T15:16:23.766Z,33.85
2023-05-13T15:17:23.780Z,33.93
2023-05-13T15:18:23.714Z,33.83
2023-05-13T15:19:23.697Z,33.66
2023-05-13T15:20:23.980Z,33.52
2023-05-13T15:21:23.717Z,33.61
2023-05-13T15:22:23.732Z,33.65
2023-05-13T15:23:23.732Z,33.58
2023-05-13T15:24:23.736Z,33.52
2023-05-13T15:25:23.758Z,33.43
2023-05-13T15:26:23.732Z,33.28
2023-05-13T15:27:23.753Z,33.03
2023-05-13T15:28:23.753Z,32.96
2023-05-13T15:29:23.781Z,32.87
2023-05-13T15:30:23.909Z,32.71
2023-05-13T15:31:23.845Z,32.64
2023-05-13T15:32:23.761Z,32.52
2023-05-13T15:33:23.775Z,32.54
2023-05-13T15:34:23.787Z,32.49
2023-05-13T15:35:23.782Z,32.30
2023-05-13T15:36:23.770Z,32.30
2023-05-13T15:37:23.786Z,32.24
2023-05-13T15:38:23.787Z,32.13
2023-05-13T15:39:23.802Z,32.00
2023-05-13T15:40:23.880Z,31.86
2023-05-13T15:41:23.812Z,31.72
2023-05-13T15:42:23.794Z,31.55
2023-05-13T15:43:23.809Z,31.52
2023-05-13T15:44:23.824Z,31.33
2023-05-13T15:45:23.829Z,31.22
2023-05-13T15:46:23.927Z,31.12
2023-05-13T15:47:23.988Z,31.03
2023-05-13T15:48:23.904Z,30.85
2023-05-13T15:49:23.884Z,30.82
2023-05-13T15:50:24.088Z,30.73
2023-05-13T15:51:23.824Z,30.64
2023-05-13T15:52:23.853Z,30.49
2023-05-13T15:53:23.822Z,30.45
2023-05-13T15:54:23.850Z,30.32
2023-05-13T15:55:23.832Z,30.26
2023-05-13T15:56:23.856Z,30.13
2023-05-13T15:57:23.846Z,30.09
2023-05-13T15:58:23.853Z,30.03
2023-05-13T15:59:23.856Z,29.88
2023-05-13T16:00:24.159Z,29.77
2023-05-13T16:01:23.882Z,29.76
2023-05-13T16:12:58.713Z,29.02
2023-05-13T16:13:58.706Z,28.91
2023-05-13T16:14:58.685Z,28.91
2023-05-13T16:15:58.724Z,28.83
2023-05-13T16:16:58.674Z,28.80
2023-05-13T16:17:58.705Z,28.78
2023-05-13T16:18:58.756Z,28.72
2023-05-13T16:19:58.852Z,28.72
2023-05-13T16:20:58.668Z,28.73
2023-05-13T16:21:58.668Z,28.60
2023-05-13T16:22:58.687Z,28.54
2023-05-13T16:23:58.718Z,28.57
2023-05-13T16:24:58.700Z,28.48
2023-05-13T16:25:58.676Z,28.42
2023-05-13T16:26:58.682Z,28.30
2023-05-13T16:27:58.854Z,28.27
2023-05-13T16:28:58.742Z,28.30
2023-05-13T16:29:58.717Z,28.35
2023-05-13T16:30:58.890Z,28.26
2023-05-13T16:31:58.722Z,28.20
2023-05-13T16:32:58.746Z,28.18
2023-05-13T16:33:58.683Z,28.18
2023-05-13T16:34:58.706Z,28.12
2023-05-13T16:35:58.701Z,28.03
2023-05-13T16:36:59.300Z,27.93
2023-05-13T16:37:58.687Z,28.03
2023-05-13T16:38:58.681Z,27.96
2023-05-13T16:39:58.750Z,27.98
2023-05-13T16:40:58.743Z,28.01
2023-05-13T16:41:58.922Z,27.90
2023-05-13T16:43:01.113Z,27.90
2023-05-13T16:43:58.684Z,27.84
2023-05-13T16:44:58.726Z,27.89
2023-05-13T16:45:58.719Z,27.90
2023-05-13T16:46:58.697Z,27.84
2023-05-13T16:47:58.747Z,27.79
2023-05-13T16:49:00.183Z,27.80
2023-05-13T16:49:58.685Z,27.75
2023-05-13T16:50:58.700Z,27.74
2023-05-13T16:51:58.700Z,27.72
2023-05-13T16:52:58.685Z,27.79
2023-05-13T16:53:58.711Z,27.75
2023-05-13T16:54:59.402Z,27.79
2023-05-13T16:55:58.731Z,27.66
2023-05-13T16:56:58.692Z,27.57
2023-05-13T16:57:58.718Z,27.55
2023-05-13T16:58:58.724Z,27.66
2023-05-13T16:59:58.716Z,27.57
2023-05-13T17:00:59.464Z,27.55
2023-05-13T17:01:58.746Z,27.48
2023-05-13T17:02:58.771Z,27.55
2023-05-13T17:03:58.707Z,27.46
2023-05-13T17:04:58.698Z,27.51
2023-05-13T17:05:58.690Z,27.43
2023-05-13T17:06:59.419Z,27.42
2023-05-13T17:07:58.714Z,27.42
2023-05-13T17:08:58.700Z,27.42
2023-05-13T17:09:58.693Z,27.43
2023-05-13T17:10:58.708Z,27.26
2023-05-13T17:11:58.721Z,27.36
2023-05-13T17:12:58.697Z,27.28
2023-05-13T17:13:58.714Z,27.31
2023-05-13T17:14:58.703Z,27.24